Time;durP1;ratioP1;P1;durP2;ratioP2;P2;SDS_P1;SDS_P2;PMS_P1;PMS_P2;Temp;Humidity;BMP_temperature;BMP_pressure;BME280_temperature;BME280_humidity;BME280_pressure;Samples;Min_cycle;Max_cycle;Signal;HPM_P1;HPM_P2
2022/05/14 00:00:17;;;;;;;3.90;3.50;;;;;;;19.74;56.20;93760.00;4979109;28;20239;-84
2022/05/14 00:02:43;;;;;;;5.50;4.78;;;;;;;19.74;56.37;93762.72;5011824;28;20120;-85
2022/05/14 00:05:09;;;;;;;4.63;3.65;;;;;;;19.75;56.26;93764.97;4994451;28;20026;-84
2022/05/14 00:07:35;;;;;;;4.35;3.50;;;;;;;19.74;56.22;93758.00;4996119;28;20030;-84
2022/05/14 00:10:01;;;;;;;3.28;2.70;;;;;;;19.75;56.29;93764.97;4979511;28;20103;-84
2022/05/14 00:15:10;;;;;;;4.22;3.70;;;;;;;19.73;56.10;93761.97;5016726;28;20040;-85
2022/05/14 00:17:36;;;;;;;4.13;3.70;;;;;;;19.72;55.90;93765.97;4979115;28;20029;-86
2022/05/14 00:20:02;;;;;;;3.55;3.03;;;;;;;19.75;55.97;93770.44;4979244;28;20087;-85
2022/05/14 00:22:27;;;;;;;3.97;3.58;;;;;;;19.73;56.29;93767.47;4994667;28;20453;-85
2022/05/14 00:24:53;;;;;;;4.30;3.70;;;;;;;19.73;56.27;93767.47;4995271;28;20038;-85
2022/05/14 00:27:18;;;;;;;3.88;3.22;;;;;;;19.74;56.24;93771.72;4978162;28;20042;-84
2022/05/14 00:29:44;;;;;;;4.70;3.92;;;;;;;19.71;55.74;93769.22;4979167;28;20033;-85
2022/05/14 00:32:09;;;;;;;3.50;3.20;;;;;;;19.72;56.08;93767.97;4994336;28;20037;-84
2022/05/14 00:34:34;;;;;;;3.33;3.03;;;;;;;19.72;55.91;93767.97;4978776;28;20117;-84
2022/05/14 00:37:00;;;;;;;4.45;3.95;;;;;;;19.71;55.82;93758.25;5011389;28;20037;-84
2022/05/14 00:39:26;;;;;;;4.22;3.83;;;;;;;19.72;55.93;93767.97;4994551;28;20040;-85
2022/05/14 00:41:51;;;;;;;4.03;3.22;;;;;;;19.73;56.07;93772.97;5018845;28;20025;-85
2022/05/14 00:44:17;;;;;;;3.50;2.85;;;;;;;19.70;55.77;93762.28;5030393;28;20032;-85
2022/05/14 00:46:55;;;;;;;3.88;3.25;;;;;;;19.71;55.68;93774.72;5014035;28;20041;-84
2022/05/14 00:49:22;;;;;;;3.53;3.22;;;;;;;19.71;55.92;93761.75;5030889;28;20037;-84
2022/05/14 00:51:47;;;;;;;3.80;3.47;;;;;;;19.71;55.95;93769.97;5004891;28;20053;-84
2022/05/14 00:54:15;;;;;;;4.35;3.47;;;;;;;19.69;55.92;93755.31;5007079;28;20045;-85
2022/05/14 00:56:42;;;;;;;3.33;3.00;;;;;;;19.71;55.80;93755.53;4991448;28;20038;-84
2022/05/14 00:59:10;;;;;;;3.63;3.33;;;;;;;19.70;55.69;93759.53;4988090;28;20054;-85
2022/05/14 01:01:36;;;;;;;3.78;3.47;;;;;;;19.70;55.67;93751.31;4987727;28;20038;-85
2022/05/14 01:04:02;;;;;;;3.13;2.80;;;;;;;19.70;55.75;93760.25;4990654;28;20044;-84
2022/05/14 01:06:28;;;;;;;3.35;3.03;;;;;;;19.70;55.80;93762.28;4973047;28;20060;-84
2022/05/14 01:08:54;;;;;;;3.42;3.13;;;;;;;19.68;55.87;93760.06;4974915;28;20624;-84
2022/05/14 01:11:19;;;;;;;3.53;2.88;;;;;;;19.69;55.60;93758.81;5008688;28;20042;-84
2022/05/14 01:13:45;;;;;;;2.92;2.72;;;;;;;19.69;55.75;93771.78;4974830;28;20143;-84
2022/05/14 01:16:11;;;;;;;3.40;3.10;;;;;;;19.68;55.72;93764.78;4990608;28;20041;-85
2022/05/14 01:18:36;;;;;;;3.30;3.00;;;;;;;19.68;55.68;93762.78;5010749;28;20037;-85
2022/05/14 01:21:04;;;;;;;2.90;2.65;;;;;;;19.68;55.54;93770.28;5008391;28;20072;-85
2022/05/14 01:26:34;;;;;;;2.90;2.60;;;;;;;19.69;55.44;93766.28;4994086;28;20101;-84
2022/05/14 01:29:04;;;;;;;3.67;2.90;;;;;;;19.68;55.25;93764.78;4991316;28;20030;-85
2022/05/14 01:31:30;;;;;;;3.47;3.10;;;;;;;19.64;55.44;93773.28;4989975;28;20041;-85
2022/05/14 01:33:58;;;;;;;3.10;2.80;;;;;;;19.64;55.42;93765.06;4990545;28;20070;-84
2022/05/14 01:36:23;;;;;;;3.47;3.17;;;;;;;19.67;55.70;93760.56;4990363;28;20699;-84
2022/05/14 01:38:49;;;;;;;2.92;2.60;;;;;;;19.64;55.59;93762.31;5007003;28;20575;-85
2022/05/14 01:41:14;;;;;;;2.78;2.58;;;;;;;19.65;55.54;93765.81;4992278;28;20030;-84
2022/05/14 01:43:39;;;;;;;3.13;2.75;;;;;;;19.65;55.30;93755.59;5010013;28;20041;-84
2022/05/14 01:46:08;;;;;;;3.05;2.75;;;;;;;19.65;55.23;93758.31;4993050;28;20558;-84
2022/05/14 01:48:33;;;;;;;4.38;3.50;;;;;;;19.65;55.44;93761.06;5026417;28;20093;-84
2022/05/14 01:50:59;;;;;;;3.25;2.88;;;;;;;19.65;55.31;93760.31;5010460;28;20037;-85
2022/05/14 01:53:24;;;;;;;3.65;3.17;;;;;;;19.66;55.15;93759.06;4993299;28;20319;-84
2022/05/14 01:55:50;;;;;;;3.25;2.92;;;;;;;19.65;55.15;93755.59;5005780;28;20397;-85
2022/05/14 02:01:00;;;;;;;3.20;2.88;;;;;;;19.64;55.38;93767.81;4992875;28;20288;-84
2022/05/14 02:03:25;;;;;;;3.50;3.17;;;;;;;19.65;55.06;93760.31;4989315;28;20046;-85
2022/05/14 02:05:50;;;;;;;2.80;2.60;;;;;;;19.63;54.93;93751.84;5006170;28;20049;-84
2022/05/14 02:08:16;;;;;;;2.90;2.60;;;;;;;19.62;54.83;93755.84;5005348;28;20397;-83
2022/05/14 02:10:41;;;;;;;3.28;2.90;;;;;;;19.61;54.97;93763.34;4974192;28;20029;-84
2022/05/14 02:13:08;;;;;;;3.08;2.63;;;;;;;19.60;54.98;93756.38;4990853;28;20376;-84
2022/05/14 02:15:34;;;;;;;3.08;2.78;;;;;;;19.60;54.85;93761.84;4993021;28;20488;-85
2022/05/14 02:17:59;;;;;;;3.00;2.70;;;;;;;19.61;55.01;93752.38;5005157;28;20041;-84
2022/05/14 02:20:25;;;;;;;3.58;2.70;;;;;;;19.61;54.88;93759.84;4989460;28;20289;-84
2022/05/14 02:22:51;;;;;;;2.85;2.50;;;;;;;19.60;54.59;93756.38;4957345;28;20038;-84
2022/05/14 02:25:19;;;;;;;3.67;3.05;;;;;;;19.58;54.87;93747.91;4969955;28;20180;-84
2022/05/14 02:27:44;;;;;;;2.70;2.40;;;;;;;19.60;54.87;93756.38;4954453;28;20867;-84
2022/05/14 02:30:11;;;;;;;2.83;2.38;;;;;;;19.59;54.56;93757.63;5006159;28;20037;-84
2022/05/14 02:32:38;;;;;;;3.85;2.70;;;;;;;19.57;55.01;93751.91;4968325;28;20369;-85
2022/05/14 02:35:04;;;;;;;2.97;2.67;;;;;;;19.56;54.60;93739.44;4936853;28;20031;-84
2022/05/14 02:37:29;;;;;;;2.70;2.50;;;;;;;19.56;54.96;93750.41;4968136;28;20038;-85
2022/05/14 02:39:56;;;;;;;3.20;2.65;;;;;;;19.56;54.60;93744.91;4952411;28;20047;-84
2022/05/14 02:42:21;;;;;;;2.67;2.47;;;;;;;19.56;54.15;93741.44;4963047;28;20052;-84
2022/05/14 02:44:46;;;;;;;3.20;2.90;;;;;;;19.58;54.95;93750.66;4988366;28;20038;-85
2022/05/14 02:47:12;;;;;;;2.55;2.30;;;;;;;19.55;54.51;93745.44;5003780;28;20038;-85
2022/05/14 02:49:37;;;;;;;2.33;2.13;;;;;;;19.54;54.44;93730.97;5004256;28;20045;-85
2022/05/14 02:52:03;;;;;;;3.33;2.63;;;;;;;19.55;54.60;93739.94;4986018;28;20484;-84
2022/05/14 02:54:29;;;;;;;3.00;2.67;;;;;;;19.55;54.47;93740.69;4952605;28;20426;-86
2022/05/14 02:56:54;;;;;;;2.83;2.50;;;;;;;19.56;54.34;93744.19;4968362;28;20039;-85
2022/05/14 02:59:20;;;;;;;2.83;2.30;;;;;;;19.52;54.47;93742.44;4951571;28;20055;-84
2022/05/14 03:01:48;;;;;;;2.47;2.28;;;;;;;19.55;54.66;93743.44;4968424;28;20049;-84
2022/05/14 03:04:22;;;;;;;2.58;2.25;;;;;;;19.55;54.24;93745.44;4954378;28;20165;-84
2022/05/14 03:06:51;;;;;;;3.35;2.88;;;;;;;19.54;54.35;93741.19;4987580;28;20029;-85
2022/05/14 03:09:17;;;;;;;2.80;2.42;;;;;;;19.52;54.38;93742.44;4984291;28;20026;-84
2022/05/14 03:11:42;;;;;;;2.22;2.00;;;;;;;19.54;54.13;93738.47;4982737;28;20282;-85
2022/05/14 03:14:07;;;;;;;2.75;2.22;;;;;;;19.52;54.33;93749.94;4991699;28;20031;-85
2022/05/14 03:16:33;;;;;;;2.72;2.13;;;;;;;19.52;54.29;93747.19;5019836;28;20125;-84
2022/05/14 03:18:58;;;;;;;3.08;2.45;;;;;;;19.51;54.16;93745.69;4988843;28;20452;-84
2022/05/14 03:21:24;;;;;;;2.45;2.25;;;;;;;19.53;54.38;93754.16;4968924;28;20047;-85
2022/05/14 03:23:49;;;;;;;3.50;2.38;;;;;;;19.50;54.12;93753.19;4970104;28;20282;-84
2022/05/14 03:26:16;;;;;;;2.70;2.50;;;;;;;19.50;53.98;93750.44;4985394;28;20038;-85
2022/05/14 03:28:41;;;;;;;2.53;2.33;;;;;;;19.51;54.24;93751.94;4991530;28;20037;-84
2022/05/14 03:31:06;;;;;;;3.20;2.50;;;;;;;19.52;54.09;93761.66;4976859;28;20382;-84
2022/05/14 03:33:32;;;;;;;2.30;2.10;;;;;;;19.50;53.96;93760.66;5009403;28;20038;-85
2022/05/14 03:35:57;;;;;;;3.00;2.70;;;;;;;19.51;54.23;93751.94;4976820;28;20056;-84
2022/05/14 03:38:23;;;;;;;2.25;2.05;;;;;;;19.51;53.77;93762.91;4975907;28;20468;-85
2022/05/14 03:40:48;;;;;;;3.05;2.42;;;;;;;19.48;53.62;93763.91;4992063;28;20460;-84
2022/05/14 03:43:14;;;;;;;2.83;2.63;;;;;;;19.51;53.70;93760.16;5010893;28;20033;-86
2022/05/14 03:45:39;;;;;;;5.97;2.60;;;;;;;19.51;53.63;93764.91;4996280;28;20033;-86
2022/05/14 03:48:05;;;;;;;3.10;2.70;;;;;;;19.51;53.51;93764.91;5011220;28;20025;-84
2022/05/14 03:50:30;;;;;;;2.65;2.20;;;;;;;19.50;53.46;93757.91;4996026;28;20049;-84
2022/05/14 03:52:57;;;;;;;2.53;2.33;;;;;;;19.52;53.24;93769.88;4989645;28;20478;-84
2022/05/14 03:55:22;;;;;;;2.60;2.28;;;;;;;19.68;53.03;93764.78;4992167;28;20396;-84
2022/05/14 03:57:48;;;;;;;2.40;2.20;;;;;;;19.82;52.75;93764.41;4992583;28;20030;-85
2022/05/14 04:00:13;;;;;;;2.25;2.03;;;;;;;19.79;52.64;93770.19;4991576;28;20429;-84
2022/05/14 04:02:39;;;;;;;2.95;2.63;;;;;;;19.76;52.70;93771.94;4992375;28;20516;-85
2022/05/14 04:05:05;;;;;;;2.20;2.00;;;;;;;19.79;52.81;93773.66;4975557;28;20077;-84
2022/05/14 04:07:30;;;;;;;3.95;2.55;;;;;;;19.81;52.76;93771.16;4991931;28;20041;-85
2022/05/14 04:09:56;;;;;;;2.25;2.05;;;;;;;19.84;52.22;93777.63;4991969;28;20034;-85
2022/05/14 04:12:22;;;;;;;2.20;2.00;;;;;;;19.87;52.36;93775.88;4987343;28;20045;-84
2022/05/14 04:14:47;;;;;;;2.47;2.15;;;;;;;19.90;52.16;93780.31;5011928;28;20037;-85
2022/05/14 04:17:13;;;;;;;2.50;2.30;;;;;;;19.89;52.26;93779.59;5004435;28;20049;-84
2022/05/14 04:19:38;;;;;;;2.10;1.90;;;;;;;19.91;52.07;93782.56;4975457;28;20045;-84
2022/05/14 04:22:03;;;;;;;2.30;2.05;;;;;;;19.90;52.01;93780.31;4991377;28;20034;-85
2022/05/14 04:24:30;;;;;;;3.17;2.10;;;;;;;19.92;52.10;93775.06;5024907;28;20057;-84
2022/05/14 04:26:55;;;;;;;2.88;2.10;;;;;;;19.90;51.83;93781.06;5008394;28;20113;-85
2022/05/14 04:29:20;;;;;;;2.33;2.13;;;;;;;19.89;52.13;93773.34;4974483;28;20145;-85
2022/05/14 04:31:46;;;;;;;2.67;2.30;;;;;;;19.87;52.19;93784.09;4975211;28;20034;-84
2022/05/14 04:34:11;;;;;;;2.53;2.25;;;;;;;19.88;51.71;93783.59;4991448;28;20038;-84
2022/05/14 04:36:37;;;;;;;3.10;2.30;;;;;;;19.87;51.81;93786.84;5008257;28;20100;-85
2022/05/14 04:39:03;;;;;;;2.17;1.98;;;;;;;19.83;51.86;93790.59;4990745;28;20038;-84
2022/05/14 04:41:30;;;;;;;2.28;2.05;;;;;;;19.83;52.20;93790.59;5012240;28;20424;-84
2022/05/14 04:43:57;;;;;;;2.83;2.30;;;;;;;19.86;52.12;93783.34;4995327;28;20060;-86
2022/05/14 04:46:22;;;;;;;3.03;2.50;;;;;;;19.85;52.11;93788.09;5011281;28;20103;-84
2022/05/14 04:48:48;;;;;;;2.17;1.98;;;;;;;19.84;52.20;93788.59;4994651;28;20041;-84
2022/05/14 04:51:13;;;;;;;1.88;1.60;;;;;;;19.84;51.88;93794.09;5027283;28;20029;-85
2022/05/14 04:53:39;;;;;;;3.40;2.38;;;;;;;19.82;52.36;93802.81;4985663;28;20045;-85
2022/05/14 04:56:04;;;;;;;2.78;2.10;;;;;;;19.81;52.50;93795.09;4975065;28;20030;-85
2022/05/14 04:58:30;;;;;;;2.20;2.00;;;;;;;19.82;52.32;93789.09;4992383;28;20060;-84
2022/05/14 05:00:56;;;;;;;2.40;2.00;;;;;;;19.79;52.50;93795.63;4994916;28;20034;-84
2022/05/14 05:03:21;;;;;;;2.35;2.15;;;;;;;19.80;52.31;93797.09;5010826;28;20037;-85
2022/05/14 05:05:51;;;;;;;2.13;1.80;;;;;;;19.78;52.11;93798.88;5011023;28;20264;-86
2022/05/14 05:08:17;;;;;;;2.00;1.80;;;;;;;19.80;52.38;93804.59;4978604;28;20041;-85
2022/05/14 05:10:43;;;;;;;2.60;2.30;;;;;;;19.82;52.55;93802.09;4978442;28;20033;-85
2022/05/14 05:13:13;;;;;;;2.10;1.90;;;;;;;19.84;52.45;93805.06;4959553;28;20056;-85
2022/05/14 05:15:38;;;;;;;3.10;2.17;;;;;;;19.83;52.37;93809.81;4978569;28;20400;-84
2022/05/14 05:18:05;;;;;;;2.13;1.92;;;;;;;19.84;52.15;93818.78;4992544;28;20041;-85
2022/05/14 05:20:30;;;;;;;2.45;2.25;;;;;;;19.84;52.29;93810.53;4977457;28;20045;-85
2022/05/14 05:22:55;;;;;;;2.15;1.90;;;;;;;19.86;52.34;93816.28;4977793;28;20037;-84
2022/05/14 05:25:21;;;;;;;2.13;1.92;;;;;;;19.87;52.30;93823.25;4977777;28;20029;-84
2022/05/14 05:27:46;;;;;;;3.72;2.17;;;;;;;19.87;52.38;93817.00;4994645;28;20136;-85
2022/05/14 05:30:12;;;;;;;1.83;1.48;;;;;;;19.88;52.14;93815.75;4976565;28;20116;-83
2022/05/14 05:32:37;;;;;;;2.50;1.80;;;;;;;19.92;52.33;93816.22;4993736;28;20731;-85
2022/05/14 05:35:03;;;;;;;2.25;2.05;;;;;;;19.92;52.23;93821.72;4977579;28;20080;-85
2022/05/14 05:37:29;;;;;;;2.22;2.03;;;;;;;19.93;51.91;93831.41;4977878;28;20030;-85
2022/05/14 05:39:54;;;;;;;1.90;1.70;;;;;;;19.93;52.38;93821.19;4993633;28;20038;-84
2022/05/14 05:42:20;;;;;;;2.00;1.77;;;;;;;19.96;52.24;93825.66;5004000;28;20053;-84
2022/05/14 05:44:45;;;;;;;1.90;1.70;;;;;;;19.96;52.01;93820.16;5013593;28;20033;-84
2022/05/14 05:47:10;;;;;;;2.10;1.90;;;;;;;19.96;52.07;93822.16;5012744;28;20098;-84
2022/05/14 05:49:39;;;;;;;1.95;1.73;;;;;;;19.95;52.27;93824.16;5013235;28;20271;-85
2022/05/14 05:52:05;;;;;;;1.80;1.70;;;;;;;19.96;52.16;93822.16;5028320;28;20086;-84
2022/05/14 05:57:14;;;;;;;2.00;1.73;;;;;;;19.98;52.17;93828.63;5006607;28;20112;-85
2022/05/14 05:59:39;;;;;;;1.70;1.60;;;;;;;20.00;52.00;93828.13;4989796;28;20505;-85
2022/05/14 06:02:06;;;;;;;2.00;1.77;;;;;;;19.96;52.08;93836.63;5005380;28;20539;-84
2022/05/14 06:04:31;;;;;;;1.83;1.67;;;;;;;19.99;52.10;93824.63;5006815;28;20022;-85
2022/05/14 06:06:56;;;;;;;2.42;1.88;;;;;;;19.99;52.06;93832.13;4989831;28;20412;-84
2022/05/14 06:09:24;;;;;;;1.90;1.60;;;;;;;20.02;51.85;93826.38;5006059;28;20042;-85
2022/05/14 06:11:50;;;;;;;1.92;1.73;;;;;;;20.02;51.59;93822.88;5033367;28;20036;-84
2022/05/14 06:14:15;;;;;;;1.58;1.48;;;;;;;20.03;51.81;93832.59;5012303;28;20116;-84
2022/05/14 06:16:41;;;;;;;2.00;1.60;;;;;;;20.04;51.88;93823.84;5012732;28;20037;-84
2022/05/14 06:19:06;;;;;;;1.88;1.60;;;;;;;20.06;51.75;93821.34;4979561;28;20205;-85
2022/05/14 06:21:32;;;;;;;1.58;1.38;;;;;;;20.02;51.70;93820.88;4929950;29;20043;-84
2022/05/14 06:23:57;;;;;;;1.77;1.67;;;;;;;20.07;51.60;93828.31;4930214;29;20035;-84
2022/05/14 06:26:23;;;;;;;1.52;1.40;;;;;;;20.07;51.58;93825.59;4945963;29;20039;-84
2022/05/14 06:28:48;;;;;;;2.70;1.63;;;;;;;20.07;51.60;93828.31;4946321;28;20039;-84
2022/05/14 06:31:16;;;;;;;1.65;1.50;;;;;;;20.09;51.63;93836.06;4935099;28;20042;-84
2022/05/14 06:33:43;;;;;;;1.40;1.23;;;;;;;20.10;51.52;93826.56;4933471;28;20039;-84
2022/05/14 06:36:09;;;;;;;1.90;1.70;;;;;;;20.09;51.59;93828.56;4948915;28;20534;-84
2022/05/14 06:38:34;;;;;;;1.50;1.40;;;;;;;20.11;51.39;93828.78;4949794;28;20039;-84
2022/05/14 06:41:07;;;;;;;1.80;1.63;;;;;;;20.11;51.50;93834.28;4933224;28;20122;-84
2022/05/14 06:43:32;;;;;;;2.08;1.48;;;;;;;20.12;51.44;93830.28;4949911;28;20375;-84
2022/05/14 06:45:58;;;;;;;2.08;1.67;;;;;;;20.13;51.24;93831.78;4933291;28;20035;-84
2022/05/14 06:48:23;;;;;;;1.52;1.30;;;;;;;20.13;51.46;93839.25;4933089;28;20094;-84
2022/05/14 06:50:48;;;;;;;2.10;1.85;;;;;;;20.15;51.38;93836.72;4949591;28;20438;-85
2022/05/14 06:53:14;;;;;;;1.95;1.38;;;;;;;20.17;51.40;93840.44;4978877;28;20341;-84
2022/05/14 06:55:40;;;;;;;1.73;1.27;;;;;;;20.16;51.33;93838.97;4992411;28;20038;-85
2022/05/14 06:58:06;;;;;;;1.52;1.42;;;;;;;20.19;51.38;93845.44;4992472;28;20112;-86
2022/05/14 07:00:31;;;;;;;1.27;1.17;;;;;;;20.20;51.19;93846.91;4992502;28;20065;-86
2022/05/14 07:06:37;;;;;;;1.48;1.30;;;;;;;20.22;51.27;93844.41;4977524;28;20518;-85
2022/05/14 07:08:26;;;;;;;1.70;1.52;;;;;;;20.24;51.18;93852.88;5001610;28;20044;-84
2022/05/14 07:10:51;;;;;;;102.63;67.18;;;;;;;20.26;48.51;93844.88;4980468;28;20370;-84
2022/05/14 07:13:17;;;;;;;10.75;8.30;;;;;;;20.27;50.45;93854.59;5049359;28;20040;-84
2022/05/14 07:15:42;;;;;;;17.77;12.82;;;;;;;20.26;49.86;93844.88;4999845;28;20245;-84
2022/05/14 07:18:08;;;;;;;21.98;15.13;;;;;;;20.22;47.83;93844.41;5010275;28;20037;-84
2022/05/14 07:20:33;;;;;;;29.48;19.25;;;;;;;20.23;48.44;93850.66;4996635;28;20037;-84
2022/05/14 07:22:59;;;;;;;10.35;7.57;;;;;;;20.19;49.37;93843.44;4996135;28;20576;-84
2022/05/14 07:25:26;;;;;;;7.70;4.43;;;;;;;20.24;49.92;93844.66;4996350;28;20076;-84
2022/05/14 07:27:52;;;;;;;4.45;3.72;;;;;;;20.22;50.32;93844.41;4997216;28;20040;-84
2022/05/14 07:30:18;;;;;;;5.20;3.85;;;;;;;20.20;50.54;93841.44;4992735;28;20042;-84
2022/05/14 07:32:44;;;;;;;8.43;4.80;;;;;;;20.23;50.50;93850.66;4995640;28;20046;-85
2022/05/14 07:35:10;;;;;;;10.80;6.40;;;;;;;20.22;50.55;93851.91;4996245;28;20048;-84
2022/05/14 07:37:39;;;;;;;11.10;8.10;;;;;;;20.21;50.50;93851.16;5030305;28;20033;-84
2022/05/14 07:40:10;;;;;;;10.15;7.00;;;;;;;20.21;50.73;93853.91;5012162;28;20060;-83
2022/05/14 07:42:47;;;;;;;9.50;7.30;;;;;;;20.19;51.13;93846.19;5011954;28;20034;-85
2022/05/14 07:45:15;;;;;;;10.48;6.63;;;;;;;20.18;50.81;93847.44;4997203;28;20063;-84
2022/05/14 07:47:41;;;;;;;10.20;5.88;;;;;;;20.19;51.04;93848.91;4979912;28;20099;-85
2022/05/14 07:50:06;;;;;;;7.65;5.60;;;;;;;20.19;51.03;93853.66;5012040;28;20029;-84
2022/05/14 07:52:32;;;;;;;9.23;6.07;;;;;;;20.19;50.61;93857.16;4995350;28;20111;-84
2022/05/14 07:54:57;;;;;;;11.35;6.43;;;;;;;20.19;50.89;93850.91;4995499;28;20469;-84
2022/05/14 07:57:23;;;;;;;8.80;4.78;;;;;;;20.12;50.87;93859.72;4995528;28;20393;-84
2022/05/14 07:59:48;;;;;;;9.23;3.63;;;;;;;20.06;47.37;93850.78;4995453;28;20397;-84
2022/05/14 08:02:26;;;;;;;8.80;3.45;;;;;;;20.03;45.98;93858.03;4978137;28;20471;-83
2022/05/14 08:04:52;;;;;;;26.95;5.82;;;;;;;19.97;45.14;93854.59;4980833;28;20405;-85
2022/05/14 08:07:17;;;;;;;22.08;5.93;;;;;;;19.97;44.86;93849.09;4978536;28;20492;-84
2022/05/14 08:09:44;;;;;;;13.50;5.25;;;;;;;19.99;45.04;93856.81;5012565;28;20500;-84
2022/05/14 08:12:11;;;;;;;18.20;5.03;;;;;;;20.00;44.68;93844.59;4991243;28;20026;-84
2022/05/14 08:14:39;;;;;;;15.80;4.95;;;;;;;20.02;44.46;93847.56;5007881;28;20041;-84
2022/05/14 08:17:06;;;;;;;15.00;5.35;;;;;;;20.02;44.51;93848.31;5008149;28;20033;-84
2022/05/14 08:19:32;;;;;;;14.68;5.28;;;;;;;20.06;45.16;93853.53;4975817;28;20030;-86
2022/05/14 08:24:41;;;;;;;32.30;7.03;;;;;;;20.08;44.86;93848.28;4999857;28;20049;-84
2022/05/14 08:27:08;;;;;;;18.52;6.93;;;;;;;20.10;45.08;93849.25;5011150;28;20030;-84
2022/05/14 08:29:34;;;;;;;17.75;6.88;;;;;;;20.08;45.16;93846.28;4993427;28;20412;-85
2022/05/14 08:31:59;;;;;;;15.05;6.10;;;;;;;20.11;45.40;93850.00;4994027;28;20061;-86
2022/05/14 08:34:25;;;;;;;22.20;9.07;;;;;;;20.10;45.90;93843.78;4980786;28;20136;-85
2022/05/14 08:36:50;;;;;;;21.17;7.60;;;;;;;20.11;45.65;93848.00;5008370;28;20046;-85
2022/05/14 08:39:16;;;;;;;20.25;6.75;;;;;;;20.12;45.34;93849.50;4991576;28;20037;-84
2022/05/14 08:41:44;;;;;;;18.10;7.57;;;;;;;20.12;46.51;93852.25;5015482;28;20044;-86
2022/05/14 08:44:23;;;;;;;21.63;7.15;;;;;;;20.12;46.21;93841.25;4975450;28;20037;-84
2022/05/14 08:46:58;;;;;;;15.73;7.85;;;;;;;20.12;47.14;93832.28;4961064;28;20056;-84
2022/05/14 08:49:34;;;;;;;17.55;6.97;;;;;;;20.14;47.19;93843.47;4979179;28;20064;-85
2022/05/14 08:51:59;;;;;;;19.83;8.30;;;;;;;20.14;47.19;93844.22;5010863;28;20037;-86
2022/05/14 08:54:25;;;;;;;24.15;8.48;;;;;;;20.15;47.30;93844.97;4993831;28;20030;-84
2022/05/14 08:57:02;;;;;;;19.08;8.57;;;;;;;20.15;47.56;93837.47;4994634;28;20029;-84
2022/05/14 08:59:37;;;;;;;20.73;8.35;;;;;;;20.17;47.84;93834.97;4994795;28;20042;-85
2022/05/14 09:02:12;;;;;;;21.08;10.00;;;;;;;20.15;47.77;93837.47;4993247;28;20034;-84
2022/05/14 09:04:37;;;;;;;23.88;8.35;;;;;;;20.15;48.31;93825.75;4978645;28;20029;-84
2022/05/14 09:07:03;;;;;;;21.45;9.45;;;;;;;20.14;48.60;93827.75;4977534;28;20493;-84
2022/05/14 09:09:28;;;;;;;15.18;8.25;;;;;;;20.15;48.53;93831.25;4994781;28;20034;-86
2022/05/14 09:11:57;;;;;;;20.05;9.38;;;;;;;20.16;48.66;93827.97;4994269;28;20060;-85
2022/05/14 09:14:29;;;;;;;22.05;8.98;;;;;;;20.15;48.70;93828.50;4993571;28;20045;-84
2022/05/14 09:16:59;;;;;;;18.88;8.65;;;;;;;20.15;49.04;93826.50;5010996;28;20036;-85
2022/05/14 09:19:30;;;;;;;16.40;7.63;;;;;;;20.16;48.85;93830.72;5010187;28;20033;-85
2022/05/14 09:21:57;;;;;;;19.85;8.77;;;;;;;20.17;48.77;93832.22;4994414;28;20504;-84
2022/05/14 09:24:26;;;;;;;18.80;8.38;;;;;;;20.13;48.90;93837.25;4994145;28;20559;-84
2022/05/14 09:26:53;;;;;;;18.98;8.65;;;;;;;20.15;48.84;93842.97;4977407;28;20057;-84
2022/05/14 09:29:35;;;;;;;21.50;9.25;;;;;;;20.14;49.16;93835.97;4978261;28;20041;-84
2022/05/14 09:32:03;;;;;;;22.58;8.80;;;;;;;20.14;49.15;93832.50;5009762;28;20053;-84
2022/05/14 09:34:29;;;;;;;17.23;8.10;;;;;;;20.14;49.03;93832.50;4976907;28;20034;-85
2022/05/14 09:37:00;;;;;;;14.07;7.53;;;;;;;20.14;48.96;93837.97;4977754;28;20040;-86
2022/05/14 09:39:25;;;;;;;19.55;9.00;;;;;;;20.16;48.95;93829.97;4993853;28;20065;-85
2022/05/14 09:41:56;;;;;;;22.88;9.23;;;;;;;20.15;49.11;93825.75;4983860;28;20040;-84
2022/05/14 09:44:26;;;;;;;19.13;9.02;;;;;;;20.17;48.97;93831.47;4976290;28;20054;-84
2022/05/14 09:47:03;;;;;;;13.57;7.35;;;;;;;20.15;49.20;93818.25;5027537;28;20433;-84
2022/05/14 09:49:28;;;;;;;20.50;7.78;;;;;;;20.16;49.25;93832.72;5010243;28;20104;-84
2022/05/14 09:52:02;;;;;;;13.82;7.45;;;;;;;20.15;49.18;93833.97;4993686;28;20431;-85
2022/05/14 09:54:30;;;;;;;21.98;8.02;;;;;;;20.14;49.12;93830.50;4994192;28;20068;-84
2022/05/14 09:57:17;;;;;;;19.33;7.85;;;;;;;20.14;49.26;93837.97;4989986;28;20041;-86
2022/05/14 10:00:06;;;;;;;19.20;8.35;;;;;;;20.13;49.22;93831.78;5008236;28;20042;-85
2022/05/14 10:02:44;;;;;;;18.08;9.27;;;;;;;20.13;49.33;93834.53;4957154;28;20053;-85
2022/05/14 10:05:16;;;;;;;18.00;8.40;;;;;;;20.12;49.36;93830.28;4990453;28;20034;-84
2022/05/14 10:07:54;;;;;;;23.05;8.55;;;;;;;20.12;49.41;93833.03;4967787;28;20029;-84
2022/05/14 10:10:38;;;;;;;13.88;7.50;;;;;;;20.14;49.30;93840.72;4976911;28;20029;-85
2022/05/14 10:13:13;;;;;;;16.10;8.00;;;;;;;20.11;49.56;93828.78;5017388;28;20103;-84
2022/05/14 10:15:45;;;;;;;18.52;9.07;;;;;;;20.13;49.49;93828.28;4973990;28;20053;-84
2022/05/14 10:18:13;;;;;;;21.80;9.80;;;;;;;20.13;49.32;93831.03;4989627;28;20038;-85
2022/05/14 10:20:50;;;;;;;19.52;8.50;;;;;;;20.14;49.32;93821.50;5023269;28;20048;-85
2022/05/14 10:26:47;;;;;;;17.20;9.98;;;;;;;20.13;49.55;93820.06;4992618;28;20096;-84
2022/05/14 10:29:22;;;;;;;15.48;9.27;;;;;;;20.13;49.37;93820.06;4989877;28;20041;-85
2022/05/14 10:31:49;;;;;;;16.25;8.57;;;;;;;20.15;49.31;93807.28;4982057;28;20092;-84
2022/05/14 10:34:19;;;;;;;20.38;9.35;;;;;;;20.13;49.39;93809.06;5008566;28;20041;-84
2022/05/14 10:36:48;;;;;;;18.98;7.60;;;;;;;20.15;49.35;93804.53;4975872;28;20045;-85
2022/05/14 10:39:23;;;;;;;18.30;9.07;;;;;;;20.13;49.29;93798.09;4991059;28;20041;-85
2022/05/14 10:41:51;;;;;;;16.08;9.32;;;;;;;20.15;49.18;93803.78;4998681;28;20913;-85
2022/05/14 10:44:27;;;;;;;14.32;6.90;;;;;;;20.15;49.34;93812.03;4975388;28;20039;-84
2022/05/14 10:46:53;;;;;;;17.10;7.18;;;;;;;20.14;49.35;93807.78;4992216;28;20042;-85
2022/05/14 10:49:22;;;;;;;15.55;7.72;;;;;;;20.12;49.58;93800.09;4992017;28;20036;-85
2022/05/14 10:51:50;;;;;;;15.85;7.57;;;;;;;20.14;49.38;93807.78;4993049;28;20033;-85
2022/05/14 10:54:17;;;;;;;14.18;7.47;;;;;;;20.14;49.64;93805.03;4991904;28;20065;-85
2022/05/14 10:56:59;;;;;;;12.15;7.80;;;;;;;20.13;49.43;93804.31;4992287;28;20029;-84
2022/05/14 10:59:38;;;;;;;11.68;7.03;;;;;;;20.13;49.68;93809.81;5008572;28;20045;-84
2022/05/14 11:02:12;;;;;;;20.48;7.32;;;;;;;20.16;49.78;93803.28;4991954;28;20033;-85
2022/05/14 11:04:42;;;;;;;11.07;6.47;;;;;;;20.14;49.47;93803.03;4977476;28;20037;-84
2022/05/14 11:07:09;;;;;;;14.43;6.50;;;;;;;20.14;49.67;93805.78;5025937;28;20045;-84
2022/05/14 11:09:44;;;;;;;11.88;7.63;;;;;;;20.13;49.61;93800.84;4992812;28;20075;-85
2022/05/14 11:12:12;;;;;;;15.30;6.32;;;;;;;20.15;49.48;93792.81;5002767;28;20084;-85
2022/05/14 11:14:42;;;;;;;12.98;6.15;;;;;;;20.14;49.43;93788.56;5027918;28;20057;-86
2022/05/14 11:17:27;;;;;;;11.18;5.65;;;;;;;20.12;49.46;93791.84;5028517;28;20049;-85
2022/05/14 11:20:12;;;;;;;15.68;6.35;;;;;;;20.13;49.70;93798.09;5021568;28;20041;-85
2022/05/14 11:22:41;;;;;;;14.82;7.40;;;;;;;20.14;49.29;93786.56;4992284;28;20548;-86
2022/05/14 11:25:22;;;;;;;9.20;5.78;;;;;;;20.13;49.42;93787.84;4991692;28;20491;-86
2022/05/14 11:28:13;;;;;;;12.73;5.88;;;;;;;20.13;49.61;93798.84;5026666;28;20044;-85
2022/05/14 11:30:45;;;;;;;11.55;6.68;;;;;;;20.14;49.56;93791.31;5024919;28;20583;-87
2022/05/14 11:33:23;;;;;;;10.77;6.55;;;;;;;20.14;49.63;93788.56;5008105;28;20353;-84
2022/05/14 11:35:49;;;;;;;9.20;6.32;;;;;;;20.12;49.69;93783.63;5008743;28;20400;-84
2022/05/14 11:38:26;;;;;;;10.85;6.78;;;;;;;20.13;49.70;93787.13;4991889;28;20033;-86
2022/05/14 11:40:56;;;;;;;9.65;5.78;;;;;;;20.14;49.52;93785.84;5026623;28;20037;-84
2022/05/14 11:43:31;;;;;;;15.73;7.85;;;;;;;20.14;49.64;93786.56;5018160;28;20044;-85
2022/05/14 11:46:10;;;;;;;10.68;6.57;;;;;;;20.13;49.71;93776.88;4976653;28;20105;-85
2022/05/14 11:48:44;;;;;;;9.23;6.07;;;;;;;20.12;49.49;93780.13;4993193;28;20567;-86
2022/05/14 11:51:38;;;;;;;14.75;6.93;;;;;;;20.12;49.87;93785.63;5011551;28;20042;-84